createdAt,value
2019-05-01T00:00:28.003Z,6.20
2019-05-01T00:03:12.932Z,3.45
2019-05-01T00:05:44.201Z,3.95
2019-05-01T00:08:13.613Z,2.50
2019-05-01T00:10:43.027Z,2.52
2019-05-01T00:13:12.539Z,2.25
2019-05-01T00:15:42.326Z,2.52
2019-05-01T00:18:11.761Z,2.10
2019-05-01T00:20:41.171Z,1.92
2019-05-01T00:23:08.831Z,1.98
2019-05-01T00:25:38.254Z,3.20
2019-05-01T00:28:07.672Z,1.72
2019-05-01T00:30:37.106Z,2.27
2019-05-01T00:33:06.562Z,2.40
2019-05-01T00:35:35.993Z,3.37
2019-05-01T00:38:05.389Z,2.17
2019-05-01T00:40:34.808Z,1.77
2019-05-01T00:43:04.239Z,2.00
2019-05-01T00:45:33.701Z,2.70
2019-05-01T00:48:03.128Z,2.05
2019-05-01T00:50:32.548Z,2.27
2019-05-01T00:53:01.966Z,1.92
2019-05-01T00:55:50.262Z,2.08
2019-05-01T00:58:43.475Z,2.00
2019-05-01T01:01:29.396Z,2.22
2019-05-01T01:03:58.805Z,2.77
2019-05-01T01:06:28.254Z,2.80
2019-05-01T01:08:57.692Z,3.47
2019-05-01T01:11:27.125Z,2.52
2019-05-01T01:13:56.554Z,3.70
2019-05-01T01:16:25.959Z,2.02
2019-05-01T01:18:55.400Z,2.02
2019-05-01T01:21:24.827Z,2.52
2019-05-01T01:23:54.250Z,2.58
2019-05-01T01:26:23.670Z,3.20
2019-05-01T01:28:53.073Z,2.65
2019-05-01T01:31:22.478Z,2.55
2019-05-01T01:33:51.903Z,3.08
2019-05-01T01:36:21.315Z,2.98
2019-05-01T01:38:50.761Z,2.40
2019-05-01T01:41:20.163Z,3.20
2019-05-01T01:44:11.489Z,3.05
2019-05-01T01:46:41.416Z,2.27
2019-05-01T01:49:10.846Z,3.35
2019-05-01T01:51:40.253Z,1.95
2019-05-01T01:54:09.685Z,4.20
2019-05-01T01:56:39.143Z,2.87
2019-05-01T01:59:08.569Z,2.92
2019-05-01T02:01:59.872Z,4.30
2019-05-01T02:04:56.571Z,2.30
2019-05-01T02:07:26.010Z,2.22
2019-05-01T02:09:55.433Z,2.70
2019-05-01T02:12:24.833Z,2.87
2019-05-01T02:14:54.230Z,3.20
2019-05-01T02:17:23.650Z,3.02
2019-05-01T02:19:53.083Z,3.20
2019-05-01T02:22:22.506Z,2.80
2019-05-01T02:24:51.923Z,3.55
2019-05-01T02:27:29.630Z,3.17
2019-05-01T02:30:01.136Z,4.30
2019-05-01T02:32:30.559Z,2.70
2019-05-01T02:35:00.773Z,2.05
2019-05-01T02:37:30.205Z,2.40
2019-05-01T02:39:59.611Z,1.92
2019-05-01T02:42:29.569Z,4.15
2019-05-01T02:44:59.014Z,2.50
2019-05-01T02:47:29.879Z,2.55
2019-05-01T02:50:05.168Z,2.70
2019-05-01T02:52:36.079Z,2.75
2019-05-01T02:55:08.444Z,1.92
2019-05-01T02:57:37.888Z,2.25
2019-05-01T03:00:07.469Z,3.08
2019-05-01T03:02:36.887Z,2.50
2019-05-01T03:05:06.631Z,2.22
2019-05-01T03:07:36.127Z,2.10
2019-05-01T03:10:09.249Z,2.40
2019-05-01T03:12:38.450Z,2.12
2019-05-01T03:15:08.372Z,2.35
2019-05-01T03:18:02.708Z,2.10
2019-05-01T03:20:39.008Z,2.05
2019-05-01T03:23:14.662Z,2.55
2019-05-01T03:25:44.165Z,3.40
2019-05-01T03:28:13.761Z,1.92
2019-05-01T03:30:43.204Z,2.00
2019-05-01T03:33:12.628Z,2.27
2019-05-01T03:35:42.042Z,2.40
2019-05-01T03:38:11.456Z,1.75
2019-05-01T03:40:40.889Z,1.20
2019-05-01T03:43:10.339Z,5.47
2019-05-01T03:45:40.063Z,3.37
2019-05-01T03:48:09.493Z,14.05
2019-05-01T03:50:39.047Z,2.85
2019-05-01T03:53:08.570Z,5.40
2019-05-01T03:55:38.016Z,3.20
2019-05-01T03:58:07.472Z,2.77
2019-05-01T04:01:07.269Z,4.58
2019-05-01T04:03:41.633Z,6.08
2019-05-01T04:06:11.341Z,3.55
2019-05-01T04:08:40.762Z,3.67
2019-05-01T04:11:10.626Z,5.53
2019-05-01T04:13:40.215Z,3.90
2019-05-01T04:16:09.638Z,4.92
2019-05-01T04:18:39.395Z,3.52
2019-05-01T04:21:09.627Z,2.70
2019-05-01T04:23:39.242Z,1.57
2019-05-01T04:26:08.823Z,1.60
2019-05-01T04:28:51.675Z,3.72
2019-05-01T04:31:46.161Z,3.35
2019-05-01T04:34:25.217Z,1.72
2019-05-01T04:36:56.732Z,2.80
2019-05-01T04:39:26.160Z,9.53
2019-05-01T04:41:55.588Z,4.60
2019-05-01T04:44:25.006Z,9.00
2019-05-01T04:46:54.595Z,3.12
2019-05-01T04:49:24.033Z,5.10
2019-05-01T04:51:53.500Z,4.20
2019-05-01T04:54:23.002Z,2.75
2019-05-01T04:56:52.446Z,3.95
2019-05-01T04:59:21.869Z,7.40
2019-05-01T05:01:56.693Z,7.62
2019-05-01T05:04:25.131Z,7.65
2019-05-01T05:06:54.573Z,5.75
2019-05-01T05:09:41.504Z,4.70
2019-05-01T05:12:15.945Z,8.93
2019-05-01T05:14:48.788Z,5.95
2019-05-01T05:17:21.018Z,7.25
2019-05-01T05:19:50.451Z,6.40
2019-05-01T05:22:19.856Z,7.80
2019-05-01T05:24:49.278Z,7.70
2019-05-01T05:27:18.784Z,8.15
2019-05-01T05:29:48.414Z,10.85
2019-05-01T05:32:18.047Z,15.10
2019-05-01T05:34:47.618Z,11.68
2019-05-01T05:37:23.920Z,17.12
2019-05-01T05:39:53.411Z,11.15
2019-05-01T05:42:22.883Z,13.72
2019-05-01T05:44:52.325Z,11.70
2019-05-01T05:47:21.819Z,12.37
2019-05-01T05:49:51.234Z,13.83
2019-05-01T05:52:31.035Z,9.38
2019-05-01T05:55:07.984Z,8.58
2019-05-01T05:58:00.758Z,15.18
2019-05-01T06:00:41.994Z,12.73
2019-05-01T06:03:31.193Z,13.38
2019-05-01T06:06:07.997Z,10.68
2019-05-01T06:08:37.464Z,8.93
2019-05-01T06:11:29.617Z,8.93
2019-05-01T06:14:14.389Z,15.60
2019-05-01T06:16:59.007Z,10.48
2019-05-01T06:19:33.946Z,10.10
2019-05-01T06:22:20.713Z,14.38
2019-05-01T06:24:53.132Z,9.68
2019-05-01T06:27:22.562Z,9.40
2019-05-01T06:29:51.990Z,12.33
2019-05-01T06:32:21.401Z,10.82
2019-05-01T06:34:50.827Z,9.15
2019-05-01T06:37:20.839Z,8.93
2019-05-01T06:39:51.432Z,9.80
2019-05-01T06:42:21.432Z,7.67
2019-05-01T06:44:59.390Z,10.10
2019-05-01T06:47:38.192Z,11.68
2019-05-01T06:50:27.212Z,6.08
2019-05-01T06:52:59.813Z,8.93
2019-05-01T06:55:28.967Z,13.00
2019-05-01T06:57:58.495Z,9.78
2019-05-01T07:00:27.967Z,7.05
2019-05-01T07:02:57.393Z,7.90
2019-05-01T07:05:26.833Z,9.53
2019-05-01T07:07:56.251Z,5.95
2019-05-01T07:10:31.620Z,6.08
2019-05-01T07:12:59.876Z,12.82
2019-05-01T07:15:28.500Z,11.45
2019-05-01T07:17:57.908Z,8.90
2019-05-01T07:20:47.388Z,11.73
2019-05-01T07:23:18.712Z,7.72
2019-05-01T07:25:48.214Z,9.58
2019-05-01T07:28:17.633Z,11.03
2019-05-01T07:30:59.503Z,10.95
2019-05-01T07:33:28.940Z,7.85
2019-05-01T07:35:58.357Z,8.40
2019-05-01T07:38:27.780Z,7.03
2019-05-01T07:40:58.775Z,8.70
2019-05-01T07:43:45.580Z,7.67
2019-05-01T07:46:20.489Z,8.73
2019-05-01T07:48:49.897Z,9.45
2019-05-01T07:51:19.331Z,10.63
2019-05-01T07:53:48.767Z,11.00
2019-05-01T07:56:18.178Z,8.85
2019-05-01T07:58:51.897Z,8.33
2019-05-01T08:01:41.578Z,11.08
2019-05-01T08:04:13.739Z,6.92
2019-05-01T08:06:42.156Z,8.80
2019-05-01T08:09:15.103Z,9.88
2019-05-01T08:11:44.060Z,7.58
2019-05-01T08:14:16.536Z,6.95
2019-05-01T08:16:45.046Z,9.88
2019-05-01T08:19:22.806Z,9.75
2019-05-01T08:21:57.005Z,6.58
2019-05-01T08:24:27.251Z,6.85
2019-05-01T08:26:56.691Z,8.10
2019-05-01T08:29:50.830Z,9.45
2019-05-01T08:32:40.916Z,10.03
2019-05-01T08:35:12.442Z,6.72
2019-05-01T08:37:41.878Z,6.67
2019-05-01T08:40:11.297Z,7.60
2019-05-01T08:42:42.675Z,7.53
2019-05-01T08:45:22.188Z,6.58
2019-05-01T08:48:01.491Z,7.25
2019-05-01T08:50:30.948Z,6.47
2019-05-01T08:53:00.377Z,9.48
2019-05-01T08:55:29.821Z,6.83
2019-05-01T08:57:59.238Z,8.53
2019-05-01T09:00:30.976Z,11.22
2019-05-01T09:03:08.128Z,6.30
2019-05-01T09:05:33.924Z,5.87
2019-05-01T09:08:02.226Z,6.67
2019-05-01T09:10:31.657Z,6.03
2019-05-01T09:13:01.075Z,5.72
2019-05-01T09:15:30.503Z,6.72
2019-05-01T09:17:59.948Z,6.70
2019-05-01T09:20:29.984Z,6.03
2019-05-01T09:22:59.413Z,6.20
2019-05-01T09:25:38.637Z,7.83
2019-05-01T09:28:17.481Z,6.35
2019-05-01T09:31:01.563Z,5.40
2019-05-01T09:33:30.780Z,4.37
2019-05-01T09:35:58.675Z,7.53
2019-05-01T09:38:28.170Z,5.05
2019-05-01T09:40:57.580Z,5.00
2019-05-01T09:43:30.895Z,4.50
2019-05-01T09:45:58.169Z,4.40
2019-05-01T09:48:27.698Z,4.83
2019-05-01T09:51:06.737Z,3.98
2019-05-01T09:53:48.568Z,4.75
2019-05-01T09:56:21.096Z,4.75
2019-05-01T09:58:50.528Z,4.65
2019-05-01T10:01:24.091Z,4.87
2019-05-01T10:03:54.675Z,3.60
2019-05-01T10:06:22.274Z,4.75
2019-05-01T10:08:51.697Z,5.47
2019-05-01T10:11:21.138Z,4.53
2019-05-01T10:13:53.781Z,4.37
2019-05-01T10:16:21.756Z,4.22
2019-05-01T10:18:51.198Z,7.25
2019-05-01T10:21:22.347Z,3.45
2019-05-01T10:23:52.843Z,3.67
2019-05-01T10:26:25.359Z,4.33
2019-05-01T10:29:21.367Z,3.30
2019-05-01T10:32:16.993Z,3.85
2019-05-01T10:34:56.912Z,3.33
2019-05-01T10:37:28.348Z,4.15
2019-05-01T10:39:57.538Z,3.87
2019-05-01T10:42:26.962Z,3.60
2019-05-01T10:44:56.399Z,5.12
2019-05-01T10:47:25.824Z,3.50
2019-05-01T10:49:55.267Z,4.15
2019-05-01T10:52:24.679Z,3.42
2019-05-01T10:54:54.102Z,3.62
2019-05-01T10:57:23.535Z,3.67
2019-05-01T10:59:52.999Z,2.90
2019-05-01T11:02:22.445Z,2.95
2019-05-01T11:04:51.844Z,5.75
2019-05-01T11:07:21.263Z,5.53
2019-05-01T11:09:50.741Z,4.00
2019-05-01T11:12:20.190Z,4.40
2019-05-01T11:14:49.592Z,6.45
2019-05-01T11:17:19.033Z,7.03
2019-05-01T11:19:48.448Z,4.45
2019-05-01T11:22:17.948Z,5.28
2019-05-01T11:24:47.399Z,8.10
2019-05-01T11:27:16.812Z,4.83
2019-05-01T11:29:46.217Z,4.05
2019-05-01T11:32:25.089Z,7.55
2019-05-01T11:35:10.238Z,3.77
2019-05-01T11:37:51.388Z,4.62
2019-05-01T11:40:39.688Z,5.30
2019-05-01T11:43:09.906Z,4.40
2019-05-01T11:45:39.418Z,3.35
2019-05-01T11:48:08.864Z,3.85
2019-05-01T11:50:38.560Z,6.47
2019-05-01T11:53:07.968Z,5.28
2019-05-01T11:55:37.395Z,2.80
2019-05-01T11:58:06.842Z,6.20
2019-05-01T12:00:36.269Z,4.58
2019-05-01T12:03:05.696Z,5.83
2019-05-01T12:05:35.124Z,3.55
2019-05-01T12:08:04.562Z,3.45
2019-05-01T12:10:33.993Z,3.85
2019-05-01T12:13:03.453Z,2.85
2019-05-01T12:15:32.897Z,4.58
2019-05-01T12:18:02.336Z,4.20
2019-05-01T12:20:31.806Z,4.70
2019-05-01T12:23:01.289Z,5.83
2019-05-01T12:25:30.708Z,4.70
2019-05-01T12:28:00.132Z,3.67
2019-05-01T12:30:29.561Z,3.40
2019-05-01T12:32:59.001Z,3.15
2019-05-01T12:35:28.466Z,5.22
2019-05-01T12:38:00.699Z,4.60
2019-05-01T12:40:30.114Z,7.58
2019-05-01T12:42:59.532Z,5.25
2019-05-01T12:45:28.975Z,9.70
2019-05-01T12:48:03.089Z,4.00
2019-05-01T12:50:32.527Z,3.90
2019-05-01T12:53:14.557Z,5.35
2019-05-01T12:56:02.812Z,4.03
2019-05-01T12:58:32.289Z,3.02
2019-05-01T13:01:01.707Z,3.72
2019-05-01T13:03:31.123Z,3.02
2019-05-01T13:06:00.565Z,3.25
2019-05-01T13:08:29.982Z,4.08
2019-05-01T13:10:59.466Z,3.95
2019-05-01T13:13:28.984Z,2.90
2019-05-01T13:15:58.428Z,3.12
2019-05-01T13:18:27.826Z,4.28
2019-05-01T13:20:57.271Z,2.67
2019-05-01T13:23:26.697Z,2.62
2019-05-01T13:25:59.625Z,3.98
2019-05-01T13:28:56.670Z,2.72
2019-05-01T13:31:32.875Z,3.45
2019-05-01T13:34:02.343Z,4.47
2019-05-01T13:36:31.770Z,4.40
2019-05-01T13:39:01.221Z,2.35
2019-05-01T13:41:30.645Z,4.45
2019-05-01T13:44:00.071Z,4.47
2019-05-01T13:46:29.512Z,3.35
2019-05-01T13:48:58.928Z,8.00
2019-05-01T13:51:28.413Z,3.90
2019-05-01T13:53:57.823Z,2.62
2019-05-01T13:56:27.279Z,4.55
2019-05-01T13:58:56.810Z,2.62
2019-05-01T14:01:26.855Z,2.37
2019-05-01T14:03:56.304Z,3.98
2019-05-01T14:06:25.764Z,6.35
2019-05-01T14:08:55.217Z,4.35
2019-05-01T14:11:24.634Z,6.20
2019-05-01T14:13:54.067Z,7.70
2019-05-01T14:16:23.487Z,5.00
2019-05-01T14:18:52.923Z,5.22
2019-05-01T14:21:44.218Z,5.53
2019-05-01T14:24:44.398Z,5.15
2019-05-01T14:27:13.811Z,3.10
2019-05-01T14:29:43.256Z,5.00
2019-05-01T14:32:12.735Z,4.92
2019-05-01T14:34:42.152Z,2.50
2019-05-01T14:37:11.578Z,11.08
2019-05-01T14:39:41.022Z,2.58
2019-05-01T14:42:10.544Z,5.80
2019-05-01T14:44:39.991Z,7.45
2019-05-01T14:47:09.433Z,5.15
2019-05-01T14:49:38.908Z,4.85
2019-05-01T14:52:08.345Z,3.02
2019-05-01T14:54:37.750Z,4.65
2019-05-01T14:57:07.192Z,3.62
2019-05-01T14:59:36.638Z,2.80
2019-05-01T15:02:06.066Z,2.15
2019-05-01T15:04:35.490Z,20.25
2019-05-01T15:07:04.940Z,19.87
2019-05-01T15:09:34.398Z,50.30
2019-05-01T15:12:05.891Z,34.25
2019-05-01T15:14:57.025Z,80.75
2019-05-01T15:17:48.163Z,69.77
2019-05-01T15:20:17.602Z,88.33
2019-05-01T15:22:47.058Z,88.47
2019-05-01T15:25:16.520Z,111.10
2019-05-01T15:27:47.198Z,102.53
2019-05-01T15:30:18.873Z,129.65
2019-05-01T15:32:48.327Z,64.53
2019-05-01T15:35:17.762Z,23.77
2019-05-01T15:37:56.470Z,42.05
2019-05-01T15:40:26.460Z,34.38
2019-05-01T15:43:02.297Z,66.57
2019-05-01T15:45:31.730Z,64.35
2019-05-01T15:48:01.192Z,57.98
2019-05-01T15:50:30.647Z,48.05
2019-05-01T15:53:00.074Z,85.53
2019-05-01T15:55:29.550Z,68.22
2019-05-01T15:57:58.989Z,71.05
2019-05-01T16:00:28.417Z,58.70
2019-05-01T16:02:57.836Z,67.10
2019-05-01T16:05:27.261Z,60.52
2019-05-01T16:08:08.957Z,61.83
2019-05-01T16:10:32.286Z,181.63
2019-05-01T16:13:02.889Z,176.15
2019-05-01T16:15:35.900Z,183.85
2019-05-01T16:18:05.470Z,160.12
2019-05-01T16:20:34.891Z,158.35
2019-05-01T16:23:04.434Z,79.20
2019-05-01T16:25:33.926Z,101.45
2019-05-01T16:28:03.428Z,118.70
2019-05-01T16:30:32.974Z,116.82
2019-05-01T16:33:02.422Z,121.47
2019-05-01T16:35:31.840Z,112.92
2019-05-01T16:38:03.167Z,124.67
2019-05-01T16:41:03.652Z,128.75
2019-05-01T16:43:33.176Z,114.35
2019-05-01T16:46:02.626Z,113.17
2019-05-01T16:48:32.059Z,118.30
2019-05-01T16:51:01.483Z,116.00
2019-05-01T16:53:31.286Z,116.22
2019-05-01T16:56:01.064Z,107.25
2019-05-01T16:58:31.876Z,100.20
2019-05-01T17:01:08.352Z,96.65
2019-05-01T17:03:55.298Z,96.50
2019-05-01T17:06:45.257Z,97.45
2019-05-01T17:09:32.302Z,88.87
2019-05-01T17:12:01.817Z,83.50
2019-05-01T17:14:31.475Z,80.72
2019-05-01T17:17:01.069Z,74.75
2019-05-01T17:19:30.491Z,77.65
2019-05-01T17:21:59.957Z,78.37
2019-05-01T17:24:29.439Z,70.47
2019-05-01T17:26:59.025Z,71.60
2019-05-01T17:29:28.499Z,70.00
2019-05-01T17:32:00.962Z,59.60
2019-05-01T17:34:32.170Z,64.10
2019-05-01T17:37:01.829Z,62.70
2019-05-01T17:39:31.249Z,63.45
2019-05-01T17:42:02.056Z,64.40
2019-05-01T17:44:31.860Z,62.25
2019-05-01T17:47:01.291Z,68.07
2019-05-01T17:49:30.748Z,66.20
2019-05-01T17:52:00.231Z,68.62
2019-05-01T17:54:29.655Z,65.32
2019-05-01T17:56:59.217Z,60.80
2019-05-01T17:59:28.655Z,62.85
2019-05-01T18:02:23.005Z,64.70
2019-05-01T18:05:11.253Z,58.75
2019-05-01T18:07:40.765Z,62.58
2019-05-01T18:10:10.295Z,56.15
2019-05-01T18:12:39.721Z,59.48
2019-05-01T18:15:09.112Z,54.88
2019-05-01T18:17:38.566Z,55.88
2019-05-01T18:20:08.106Z,58.40
2019-05-01T18:23:14.674Z,51.83
2019-05-01T18:25:50.953Z,47.20
2019-05-01T18:28:33.730Z,50.52
2019-05-01T18:31:03.734Z,47.88
2019-05-01T18:33:33.195Z,50.33
2019-05-01T18:36:02.899Z,46.35
2019-05-01T18:38:48.706Z,43.90
2019-05-01T18:41:25.924Z,41.92
2019-05-01T18:43:55.367Z,40.45
2019-05-01T18:46:24.855Z,41.92
2019-05-01T18:48:54.318Z,44.90
2019-05-01T18:51:23.756Z,40.35
2019-05-01T18:53:57.487Z,41.98
2019-05-01T18:56:24.311Z,40.17
2019-05-01T18:58:54.215Z,39.25
2019-05-01T19:01:23.632Z,35.25
2019-05-01T19:03:53.087Z,39.67
2019-05-01T19:06:22.533Z,35.58
2019-05-01T19:08:51.945Z,34.30
2019-05-01T19:11:21.415Z,40.88
2019-05-01T19:13:50.901Z,37.83
2019-05-01T19:16:20.345Z,34.83
2019-05-01T19:18:49.772Z,37.28
2019-05-01T19:21:23.613Z,38.88
2019-05-01T19:23:52.162Z,38.15
2019-05-01T19:26:21.723Z,36.90
2019-05-01T19:28:51.169Z,33.85
2019-05-01T19:31:21.417Z,33.90
2019-05-01T19:33:50.906Z,36.70
2019-05-01T19:36:20.328Z,35.20
2019-05-01T19:38:49.761Z,33.45
2019-05-01T19:41:19.197Z,34.13
2019-05-01T19:43:48.613Z,35.23
2019-05-01T19:46:18.041Z,33.10
2019-05-01T19:48:50.832Z,33.58
2019-05-01T19:51:19.205Z,33.25
2019-05-01T19:53:51.595Z,38.08
2019-05-01T19:56:22.647Z,31.48
2019-05-01T19:58:52.141Z,36.38
2019-05-01T20:01:21.645Z,32.38
2019-05-01T20:03:51.087Z,31.42
2019-05-01T20:06:20.549Z,34.03
2019-05-01T20:08:49.931Z,30.60
2019-05-01T20:11:19.361Z,38.65
2019-05-01T20:13:48.806Z,29.52
2019-05-01T20:16:19.902Z,38.63
2019-05-01T20:18:49.342Z,30.60
2019-05-01T20:21:18.817Z,27.02
2019-05-01T20:23:48.259Z,29.45
2019-05-01T20:26:17.723Z,26.57
2019-05-01T20:28:47.240Z,27.30
2019-05-01T20:31:17.944Z,32.05
2019-05-01T20:33:47.816Z,32.00
2019-05-01T20:36:17.271Z,28.50
2019-05-01T20:38:46.991Z,27.55
2019-05-01T20:41:18.096Z,29.02
2019-05-01T20:43:47.649Z,27.60
2019-05-01T20:46:21.368Z,27.62
2019-05-01T20:48:48.229Z,27.30
2019-05-01T20:51:20.166Z,26.65
2019-05-01T20:53:48.802Z,24.75
2019-05-01T20:56:35.202Z,25.97
2019-05-01T20:59:04.992Z,23.80
2019-05-01T21:01:34.503Z,33.00
2019-05-01T21:04:18.028Z,27.05
2019-05-01T21:07:00.574Z,26.17
2019-05-01T21:09:46.813Z,23.85
2019-05-01T21:12:05.911Z,22.15
2019-05-01T21:14:35.307Z,23.77
2019-05-01T21:17:09.569Z,24.67
2019-05-01T21:19:37.749Z,28.35
2019-05-01T21:22:07.017Z,26.10
2019-05-01T21:24:36.445Z,23.65
2019-05-01T21:27:05.872Z,23.20
2019-05-01T21:29:35.307Z,24.00
2019-05-01T21:32:04.714Z,23.55
2019-05-01T21:34:34.133Z,22.77
2019-05-01T21:37:03.567Z,25.90
2019-05-01T21:39:33.501Z,24.70
2019-05-01T21:42:06.898Z,21.60
2019-05-01T21:44:34.061Z,23.92
2019-05-01T21:47:04.076Z,21.97
2019-05-01T21:49:33.497Z,20.95
2019-05-01T21:52:03.681Z,22.30
2019-05-01T21:54:34.222Z,24.67
2019-05-01T21:57:03.643Z,20.35
2019-05-01T21:59:35.172Z,20.68
2019-05-01T22:02:05.487Z,20.60
2019-05-01T22:04:35.377Z,21.37
2019-05-01T22:07:05.490Z,20.05
2019-05-01T22:09:35.099Z,22.00
2019-05-01T22:12:08.181Z,18.77
2019-05-01T22:14:43.962Z,19.57
2019-05-01T22:17:20.729Z,20.70
2019-05-01T22:19:50.153Z,18.00
2019-05-01T22:22:43.682Z,21.48
2019-05-01T22:25:17.470Z,19.82
2019-05-01T22:27:53.824Z,19.40
2019-05-01T22:30:46.413Z,19.65
2019-05-01T22:33:16.353Z,19.32
2019-05-01T22:35:47.940Z,19.02
2019-05-01T22:38:17.356Z,16.15
2019-05-01T22:41:06.570Z,18.35
2019-05-01T22:43:32.132Z,16.97
2019-05-01T22:46:03.359Z,20.32
2019-05-01T22:48:33.094Z,18.35
2019-05-01T22:51:39.415Z,18.15
2019-05-01T22:54:08.852Z,17.60
2019-05-01T22:56:38.365Z,17.37
2019-05-01T22:59:07.794Z,19.07
2019-05-01T23:01:37.302Z,19.87
2019-05-01T23:04:12.194Z,16.48
2019-05-01T23:06:41.761Z,16.65
2019-05-01T23:09:10.465Z,17.48
2019-05-01T23:11:42.202Z,17.45
2019-05-01T23:14:12.008Z,16.52
2019-05-01T23:16:54.707Z,16.52
2019-05-01T23:19:27.827Z,16.95
2019-05-01T23:21:58.197Z,15.58
2019-05-01T23:24:26.441Z,17.48
2019-05-01T23:26:55.868Z,16.10
2019-05-01T23:29:25.303Z,15.48
2019-05-01T23:31:54.806Z,18.75
2019-05-01T23:34:26.240Z,18.37
2019-05-01T23:36:55.399Z,14.43
2019-05-01T23:39:24.838Z,15.68
2019-05-01T23:41:54.263Z,15.95
2019-05-01T23:44:23.691Z,19.92
2019-05-01T23:46:53.123Z,15.75
2019-05-01T23:49:22.565Z,13.80
2019-05-01T23:51:51.976Z,16.07
2019-05-01T23:54:21.404Z,14.40
2019-05-01T23:56:50.844Z,14.05
2019-05-01T23:59:20.305Z,14.13
